sensor_id;sensor_type;location;lat;lon;timestamp;temperature;humidity
21518;DHT22;61765;45.794;24.150;2022-10-16T00:07:39;15.00;82.10
21518;DHT22;61765;45.794;24.150;2022-10-16T00:15:44;15.20;82.70
21518;DHT22;61765;45.794;24.150;2022-10-16T00:23:54;15.20;82.10
21518;DHT22;61765;45.794;24.150;2022-10-16T00:32:01;15.30;82.00
21518;DHT22;61765;45.794;24.150;2022-10-16T00:40:10;15.30;82.40
21518;DHT22;61765;45.794;24.150;2022-10-16T00:48:15;15.20;81.90
21518;DHT22;61765;45.794;24.150;2022-10-16T00:56:23;15.30;81.70
21518;DHT22;61765;45.794;24.150;2022-10-16T01:04:32;15.10;82.00
21518;DHT22;61765;45.794;24.150;2022-10-16T01:12:46;15.20;82.30
21518;DHT22;61765;45.794;24.150;2022-10-16T01:20:57;15.20;81.90
21518;DHT22;61765;45.794;24.150;2022-10-16T01:29:09;15.10;82.00
21518;DHT22;61765;45.794;24.150;2022-10-16T01:37:23;14.90;82.50
21518;DHT22;61765;45.794;24.150;2022-10-16T01:45:33;14.90;82.20
21518;DHT22;61765;45.794;24.150;2022-10-16T01:53:40;14.80;82.80
21518;DHT22;61765;45.794;24.150;2022-10-16T02:01:51;14.30;84.60
21518;DHT22;61765;45.794;24.150;2022-10-16T02:09:59;14.20;84.80
21518;DHT22;61765;45.794;24.150;2022-10-16T02:18:09;14.50;84.50
21518;DHT22;61765;45.794;24.150;2022-10-16T02:26:20;14.50;83.90
21518;DHT22;61765;45.794;24.150;2022-10-16T02:34:33;14.70;83.40
21518;DHT22;61765;45.794;24.150;2022-10-16T02:42:40;14.50;83.90
21518;DHT22;61765;45.794;24.150;2022-10-16T02:50:48;14.60;84.00
21518;DHT22;61765;45.794;24.150;2022-10-16T02:58:54;14.50;83.40
21518;DHT22;61765;45.794;24.150;2022-10-16T03:07:03;14.30;84.30
21518;DHT22;61765;45.794;24.150;2022-10-16T03:15:09;14.20;84.50
21518;DHT22;61765;45.794;24.150;2022-10-16T03:23:17;14.10;84.30
21518;DHT22;61765;45.794;24.150;2022-10-16T03:31:22;14.20;84.80
21518;DHT22;61765;45.794;24.150;2022-10-16T03:39:30;14.00;84.90
21518;DHT22;61765;45.794;24.150;2022-10-16T03:47:36;14.10;84.60
21518;DHT22;61765;45.794;24.150;2022-10-16T03:55:44;14.00;85.00
21518;DHT22;61765;45.794;24.150;2022-10-16T04:03:50;14.10;84.80
21518;DHT22;61765;45.794;24.150;2022-10-16T04:11:58;14.10;84.50
21518;DHT22;61765;45.794;24.150;2022-10-16T04:20:04;13.80;85.40
21518;DHT22;61765;45.794;24.150;2022-10-16T04:28:12;13.90;84.80
21518;DHT22;61765;45.794;24.150;2022-10-16T04:36:17;13.90;84.80
21518;DHT22;61765;45.794;24.150;2022-10-16T04:44:30;13.70;84.80
21518;DHT22;61765;45.794;24.150;2022-10-16T04:52:35;13.80;85.10
21518;DHT22;61765;45.794;24.150;2022-10-16T05:00:44;13.70;85.30
21518;DHT22;61765;45.794;24.150;2022-10-16T05:08:49;13.60;85.00
21518;DHT22;61765;45.794;24.150;2022-10-16T05:16:57;13.60;85.40
21518;DHT22;61765;45.794;24.150;2022-10-16T05:25:03;13.60;85.20
21518;DHT22;61765;45.794;24.150;2022-10-16T05:33:11;13.70;85.00
21518;DHT22;61765;45.794;24.150;2022-10-16T05:41:16;13.50;85.90
21518;DHT22;61765;45.794;24.150;2022-10-16T05:49:26;13.50;86.00
21518;DHT22;61765;45.794;24.150;2022-10-16T05:57:31;13.90;85.50
21518;DHT22;61765;45.794;24.150;2022-10-16T06:05:39;14.10;85.20
21518;DHT22;61765;45.794;24.150;2022-10-16T06:13:45;13.90;85.40
21518;DHT22;61765;45.794;24.150;2022-10-16T06:21:56;14.20;85.50
21518;DHT22;61765;45.794;24.150;2022-10-16T06:30:02;14.10;85.10
21518;DHT22;61765;45.794;24.150;2022-10-16T06:38:10;14.20;85.40
21518;DHT22;61765;45.794;24.150;2022-10-16T06:46:18;13.70;86.50
21518;DHT22;61765;45.794;24.150;2022-10-16T06:54:27;14.30;87.10
21518;DHT22;61765;45.794;24.150;2022-10-16T07:02:43;14.50;84.30
21518;DHT22;61765;45.794;24.150;2022-10-16T07:10:58;15.40;83.50
21518;DHT22;61765;45.794;24.150;2022-10-16T07:19:03;15.90;81.70
21518;DHT22;61765;45.794;24.150;2022-10-16T07:27:12;16.30;81.90
21518;DHT22;61765;45.794;24.150;2022-10-16T07:35:19;16.50;81.00
21518;DHT22;61765;45.794;24.150;2022-10-16T07:43:27;16.20;80.40
21518;DHT22;61765;45.794;24.150;2022-10-16T07:51:33;16.30;81.20
21518;DHT22;61765;45.794;24.150;2022-10-16T07:59:43;16.00;82.40
21518;DHT22;61765;45.794;24.150;2022-10-16T08:07:48;18.20;78.20
21518;DHT22;61765;45.794;24.150;2022-10-16T08:15:57;18.10;76.90
21518;DHT22;61765;45.794;24.150;2022-10-16T08:24:02;18.80;77.60
21518;DHT22;61765;45.794;24.150;2022-10-16T08:32:10;19.00;75.60
21518;DHT22;61765;45.794;24.150;2022-10-16T08:40:24;19.10;75.50
21518;DHT22;61765;45.794;24.150;2022-10-16T08:48:39;19.50;75.60
21518;DHT22;61765;45.794;24.150;2022-10-16T08:56:47;20.00;73.60
21518;DHT22;61765;45.794;24.150;2022-10-16T09:05:09;20.20;74.00
21518;DHT22;61765;45.794;24.150;2022-10-16T09:13:21;24.70;63.20
21518;DHT22;61765;45.794;24.150;2022-10-16T09:21:34;33.00;50.20
21518;DHT22;61765;45.794;24.150;2022-10-16T09:29:40;39.00;41.50
21518;DHT22;61765;45.794;24.150;2022-10-16T09:37:50;40.10;38.40
21518;DHT22;61765;45.794;24.150;2022-10-16T09:45:57;42.60;37.90
21518;DHT22;61765;45.794;24.150;2022-10-16T09:54:14;45.40;33.10
21518;DHT22;61765;45.794;24.150;2022-10-16T10:02:28;43.60;34.10
21518;DHT22;61765;45.794;24.150;2022-10-16T10:10:41;45.90;32.60
21518;DHT22;61765;45.794;24.150;2022-10-16T10:18:46;48.20;30.40
21518;DHT22;61765;45.794;24.150;2022-10-16T10:27:12;50.10;29.60
21518;DHT22;61765;45.794;24.150;2022-10-16T10:35:25;49.20;29.80
21518;DHT22;61765;45.794;24.150;2022-10-16T10:43:49;50.40;28.90
21518;DHT22;61765;45.794;24.150;2022-10-16T10:52:05;44.70;29.70
21518;DHT22;61765;45.794;24.150;2022-10-16T11:00:21;35.00;38.90
21518;DHT22;61765;45.794;24.150;2022-10-16T11:08:34;27.70;49.10
21518;DHT22;61765;45.794;24.150;2022-10-16T11:16:49;25.30;53.00
21518;DHT22;61765;45.794;24.150;2022-10-16T11:25:02;24.60;55.50
21518;DHT22;61765;45.794;24.150;2022-10-16T11:33:23;23.50;57.60
21518;DHT22;61765;45.794;24.150;2022-10-16T11:41:34;23.50;57.80
21518;DHT22;61765;45.794;24.150;2022-10-16T11:49:44;23.20;58.90
21518;DHT22;61765;45.794;24.150;2022-10-16T11:57:53;22.90;59.00
21518;DHT22;61765;45.794;24.150;2022-10-16T12:06:20;22.40;59.40
21518;DHT22;61765;45.794;24.150;2022-10-16T12:14:37;21.80;60.30
21518;DHT22;61765;45.794;24.150;2022-10-16T12:23:06;22.40;60.40
21518;DHT22;61765;45.794;24.150;2022-10-16T12:31:12;21.90;60.00
21518;DHT22;61765;45.794;24.150;2022-10-16T12:39:24;22.50;59.90
21518;DHT22;61765;45.794;24.150;2022-10-16T12:47:46;21.80;60.50
21518;DHT22;61765;45.794;24.150;2022-10-16T12:56:12;22.40;59.50
21518;DHT22;61765;45.794;24.150;2022-10-16T13:04:29;22.90;58.30
21518;DHT22;61765;45.794;24.150;2022-10-16T13:13:12;22.60;57.90
21518;DHT22;61765;45.794;24.150;2022-10-16T13:21:32;22.40;59.40
21518;DHT22;61765;45.794;24.150;2022-10-16T13:29:53;22.70;59.30
21518;DHT22;61765;45.794;24.150;2022-10-16T13:38:14;22.80;59.00
21518;DHT22;61765;45.794;24.150;2022-10-16T13:46:23;22.30;57.30
21518;DHT22;61765;45.794;24.150;2022-10-16T13:54:29;22.80;57.70
21518;DHT22;61765;45.794;24.150;2022-10-16T14:02:40;22.80;58.70
21518;DHT22;61765;45.794;24.150;2022-10-16T14:10:48;22.60;59.60
21518;DHT22;61765;45.794;24.150;2022-10-16T14:19:00;22.90;58.60
21518;DHT22;61765;45.794;24.150;2022-10-16T14:27:26;22.70;57.80
21518;DHT22;61765;45.794;24.150;2022-10-16T14:35:37;22.80;58.40
21518;DHT22;61765;45.794;24.150;2022-10-16T14:43:44;22.80;59.10
21518;DHT22;61765;45.794;24.150;2022-10-16T14:51:56;22.70;59.30
21518;DHT22;61765;45.794;24.150;2022-10-16T15:00:04;22.80;59.50
21518;DHT22;61765;45.794;24.150;2022-10-16T15:08:14;22.90;59.80
21518;DHT22;61765;45.794;24.150;2022-10-16T15:16:19;22.70;59.60
21518;DHT22;61765;45.794;24.150;2022-10-16T15:24:30;22.70;60.10
21518;DHT22;61765;45.794;24.150;2022-10-16T15:32:36;22.60;60.90
21518;DHT22;61765;45.794;24.150;2022-10-16T15:40:44;22.40;61.60
21518;DHT22;61765;45.794;24.150;2022-10-16T15:48:51;22.20;61.40
21518;DHT22;61765;45.794;24.150;2022-10-16T15:57:03;22.10;62.80
21518;DHT22;61765;45.794;24.150;2022-10-16T16:05:09;21.90;62.90
21518;DHT22;61765;45.794;24.150;2022-10-16T16:13:18;21.70;63.60
21518;DHT22;61765;45.794;24.150;2022-10-16T16:21:23;21.60;65.00
21518;DHT22;61765;45.794;24.150;2022-10-16T16:29:35;21.40;65.10
21518;DHT22;61765;45.794;24.150;2022-10-16T16:37:40;21.10;65.70
21518;DHT22;61765;45.794;24.150;2022-10-16T16:45:48;20.80;66.70
21518;DHT22;61765;45.794;24.150;2022-10-16T16:53:54;20.50;67.40
21518;DHT22;61765;45.794;24.150;2022-10-16T17:02:03;20.40;68.10
21518;DHT22;61765;45.794;24.150;2022-10-16T17:10:11;19.80;69.90
21518;DHT22;61765;45.794;24.150;2022-10-16T17:18:19;19.80;70.40
21518;DHT22;61765;45.794;24.150;2022-10-16T17:26:25;19.90;70.80
21518;DHT22;61765;45.794;24.150;2022-10-16T17:34:34;19.80;70.90
21518;DHT22;61765;45.794;24.150;2022-10-16T17:42:39;19.70;71.90
21518;DHT22;61765;45.794;24.150;2022-10-16T17:50:47;19.60;72.30
21518;DHT22;61765;45.794;24.150;2022-10-16T17:58:54;19.50;72.80
21518;DHT22;61765;45.794;24.150;2022-10-16T18:07:03;19.50;73.00
21518;DHT22;61765;45.794;24.150;2022-10-16T18:15:09;19.30;72.80
21518;DHT22;61765;45.794;24.150;2022-10-16T18:23:20;18.90;73.70
21518;DHT22;61765;45.794;24.150;2022-10-16T18:31:26;18.40;75.20
21518;DHT22;61765;45.794;24.150;2022-10-16T18:39:34;18.50;75.40
21518;DHT22;61765;45.794;24.150;2022-10-16T18:47:39;18.40;75.10
21518;DHT22;61765;45.794;24.150;2022-10-16T18:55:53;18.30;75.00
21518;DHT22;61765;45.794;24.150;2022-10-16T19:04:00;18.30;75.20
21518;DHT22;61765;45.794;24.150;2022-10-16T19:12:08;18.20;76.00
21518;DHT22;61765;45.794;24.150;2022-10-16T19:20:14;18.10;75.20
21518;DHT22;61765;45.794;24.150;2022-10-16T19:28:22;18.10;75.70
21518;DHT22;61765;45.794;24.150;2022-10-16T19:36:30;17.80;75.90
21518;DHT22;61765;45.794;24.150;2022-10-16T19:44:38;17.70;76.60
21518;DHT22;61765;45.794;24.150;2022-10-16T19:52:43;17.60;77.80
21518;DHT22;61765;45.794;24.150;2022-10-16T20:00:52;17.60;78.20
21518;DHT22;61765;45.794;24.150;2022-10-16T20:08:58;17.50;78.10
21518;DHT22;61765;45.794;24.150;2022-10-16T20:17:06;17.50;78.30
21518;DHT22;61765;45.794;24.150;2022-10-16T20:25:13;17.40;78.40
21518;DHT22;61765;45.794;24.150;2022-10-16T20:33:23;17.40;78.20
21518;DHT22;61765;45.794;24.150;2022-10-16T20:41:28;17.20;78.50
21518;DHT22;61765;45.794;24.150;2022-10-16T20:49:36;17.30;78.60
21518;DHT22;61765;45.794;24.150;2022-10-16T20:57:42;17.20;78.60
21518;DHT22;61765;45.794;24.150;2022-10-16T21:05:50;17.20;78.10
21518;DHT22;61765;45.794;24.150;2022-10-16T21:14:02;16.80;78.90
21518;DHT22;61765;45.794;24.150;2022-10-16T21:22:11;16.90;79.40
21518;DHT22;61765;45.794;24.150;2022-10-16T21:30:16;16.80;78.90
21518;DHT22;61765;45.794;24.150;2022-10-16T21:38:25;16.60;79.00
21518;DHT22;61765;45.794;24.150;2022-10-16T21:46:31;16.60;79.80
21518;DHT22;61765;45.794;24.150;2022-10-16T21:54:40;16.50;79.90
21518;DHT22;61765;45.794;24.150;2022-10-16T22:02:45;16.40;81.10
21518;DHT22;61765;45.794;24.150;2022-10-16T22:10:53;16.30;81.10
21518;DHT22;61765;45.794;24.150;2022-10-16T22:18:58;16.20;80.30
21518;DHT22;61765;45.794;24.150;2022-10-16T22:27:07;16.00;80.40
21518;DHT22;61765;45.794;24.150;2022-10-16T22:35:12;16.10;80.70
21518;DHT22;61765;45.794;24.150;2022-10-16T22:43:20;15.80;80.90
21518;DHT22;61765;45.794;24.150;2022-10-16T22:51:27;15.70;81.20
21518;DHT22;61765;45.794;24.150;2022-10-16T22:59:35;15.70;81.30
21518;DHT22;61765;45.794;24.150;2022-10-16T23:07:40;15.50;81.50
21518;DHT22;61765;45.794;24.150;2022-10-16T23:15:50;15.40;81.60
21518;DHT22;61765;45.794;24.150;2022-10-16T23:23:55;15.30;82.20
21518;DHT22;61765;45.794;24.150;2022-10-16T23:32:03;15.40;82.60
21518;DHT22;61765;45.794;24.150;2022-10-16T23:40:10;15.30;82.20
21518;DHT22;61765;45.794;24.150;2022-10-16T23:48:18;15.30;82.00
21518;DHT22;61765;45.794;24.150;2022-10-16T23:56:23;15.40;81.40
